Saturday, August 18, 2018, 7:19 AM GMT
Back to Local

CWVU, Brier Island, N. S.

Location: , , Canada Lat: 44.286
Local Time: 7:19 AM GMT ( 7:19 GMT) Lon: -66.347
Time Zone: GMT Elev: 52 ft

Show me the last for .
Show Coded

Time T Td Feel RH Dir Speed Gust Alt SLP Vis Weather Sky Remarks
2018-08-18 07:00 61 56 - 84 150° 16 - - 29.93 0 Peak wind: 23 mph (20 kts) from 140° at 13 min
2018-08-18 06:00 60 56 - 86 140° 18 - - 29.96 0 Peak wind: 23 mph (20 kts) from 140° at 51 min
2018-08-18 05:00 60 58 - 96 140° 16 - - 30.00 0 Peak wind: 20 mph (18 kts) from 150° at 56 min
2018-08-18 04:00 59 59 - 99 140° 14 - - 30.02 0 None
2018-08-18 03:00 58 56 - 92 150° 14 - - 30.04 0 None
2018-08-18 02:00 57 57 - 99 160° 12 - - 30.05 0 None
2018-08-18 01:00 57 57 - 98 150° 14 - - 30.07 0 None
2018-08-18 00:00 57 57 - 98 150° 13 - - 30.07 0 None
2018-08-17 23:00 58 57 - 97 160° 9 - - 30.08 0 None
2018-08-17 22:00 63 59 - 86 180° 7 - - 30.08 0 None
2018-08-17 21:00 66 59 - 77 200° 6 - - 30.09 0 None
2018-08-17 20:00 65 59 - 81 240° 6 - - 30.11 0 None
2018-08-17 19:00 63 58 - 82 350° 2 - - 30.11 0 None
2018-08-17 18:00 62 57 - 83 260° 5 - - 30.14 0 None
2018-08-17 17:00 62 58 - 87 330° 3 - - 30.14 0 None
2018-08-17 16:00 62 56 - 80 360° 3 - - 30.15 0 None
2018-08-17 15:00 60 57 - 90 360° 5 - - 30.16 0 None
2018-08-17 14:00 59 57 - 91 20° 5 - - 30.16 0 None
2018-08-17 13:00 59 57 - 93 360° 5 - - 30.17 0 None
2018-08-17 12:00 58 56 - 95 20° 7 - - 30.17 0 None
2018-08-17 11:00 55 55 - 97 20° 3 - - 30.16 0 None
2018-08-17 10:00 54 54 - 99 20° 3 - - 30.14 0 None
2018-08-17 09:00 54 54 - 98 40° 2 - - 30.13 0 None
2018-08-17 08:00 55 54 - 97 310° 3 - - 30.11 0 None

Support USWX by starting your Amazon purchase here.